Time;durP1;ratioP1;P1;durP2;ratioP2;P2;SDS_P1;SDS_P2;PMS_P1;PMS_P2;Temp;Humidity;BMP_temperature;BMP_pressure;BME280_temperature;BME280_humidity;BME280_pressure;Samples;Min_cycle;Max_cycle;Signal;HPM_P1;HPM_P2
2022/10/01 00:02:22;;;;;;;39.80;28.10;;;;;;;10.86;74.60;99905.77;106125;1271;137275;-75
2022/10/01 00:04:55;;;;;;;39.60;28.90;;;;;;;10.87;74.68;99906.26;106154;1271;108866;-75
2022/10/01 00:07:28;;;;;;;41.70;30.70;;;;;;;10.86;74.85;99902.98;106135;1271;137564;-76
2022/10/01 00:10:00;;;;;;;40.70;29.30;;;;;;;10.86;74.87;99905.58;106224;1271;98498;-76
2022/10/01 00:12:32;;;;;;;40.30;29.40;;;;;;;10.86;74.99;99907.49;106075;1271;138708;-76
2022/10/01 00:15:08;;;;;;;39.10;29.60;;;;;;;10.85;75.00;99904.23;106172;1271;111577;-76
2022/10/01 00:17:44;;;;;;;41.00;29.60;;;;;;;10.85;74.99;99906.50;106197;1271;107793;-76
2022/10/01 00:20:17;;;;;;;39.50;28.90;;;;;;;10.84;75.13;99907.77;106118;1271;138847;-76
2022/10/01 00:22:49;;;;;;;37.80;29.80;;;;;;;10.84;75.23;99911.60;106194;1271;97824;-77
2022/10/01 00:25:24;;;;;;;41.70;29.80;;;;;;;10.82;75.13;99912.36;106082;1272;138572;-77
2022/10/01 00:27:56;;;;;;;40.30;31.00;;;;;;;10.82;75.20;99910.80;106177;1271;112709;-77
2022/10/01 00:30:28;;;;;;;40.10;28.70;;;;;;;10.81;75.22;99907.89;106120;1271;138920;-76
2022/10/01 00:33:01;;;;;;;39.30;29.30;;;;;;;10.80;75.23;99904.45;106239;1271;109143;-77
2022/10/01 00:35:33;;;;;;;39.00;29.00;;;;;;;10.78;75.03;99906.08;106201;1271;97948;-76
2022/10/01 00:38:05;;;;;;;39.30;29.00;;;;;;;10.77;75.07;99910.30;106006;1274;138696;-77
2022/10/01 00:40:37;;;;;;;33.20;26.40;;;;;;;10.75;75.07;99911.41;106139;1272;110499;-76
2022/10/01 00:43:24;;;;;;;38.00;28.20;;;;;;;10.74;75.04;99918.40;106035;1271;138665;-76
2022/10/01 00:46:01;;;;;;;40.20;28.10;;;;;;;10.73;75.09;99924.36;106155;1272;108840;-76
2022/10/01 00:48:42;;;;;;;39.60;29.60;;;;;;;10.72;75.03;99927.88;106102;1271;140318;-77
2022/10/01 00:51:14;;;;;;;42.90;29.40;;;;;;;10.70;75.05;99921.86;106192;1273;97832;-76
2022/10/01 00:53:47;;;;;;;40.70;30.60;;;;;;;10.69;75.19;99913.41;106244;1271;111357;-77
2022/10/01 00:56:19;;;;;;;39.80;29.80;;;;;;;10.65;75.05;99908.17;106037;1274;140217;-77
2022/10/01 00:58:54;;;;;;;42.70;30.50;;;;;;;10.61;75.00;99908.48;106151;1274;105970;-77
2022/10/01 01:01:28;;;;;;;41.90;29.00;;;;;;;10.59;75.18;99904.02;106052;1274;140709;-76
2022/10/01 01:04:01;;;;;;;42.80;30.20;;;;;;;10.58;75.44;99903.17;106115;1274;97840;-76
2022/10/01 01:06:33;;;;;;;37.20;29.00;;;;;;;10.59;75.56;99902.80;106069;1274;139989;-75
2022/10/01 01:09:06;;;;;;;39.50;30.10;;;;;;;10.59;75.51;99895.86;106253;1271;107940;-75
2022/10/01 01:11:48;;;;;;;39.10;28.50;;;;;;;10.59;75.73;99895.16;106210;1273;107150;-75
2022/10/01 01:14:29;;;;;;;40.70;28.50;;;;;;;10.60;75.72;99898.43;107629;1271;138595;-76
2022/10/01 01:17:07;;;;;;;40.30;30.00;;;;;;;10.59;75.67;99896.54;107311;1272;96346;-75
2022/10/01 01:19:56;;;;;;;40.10;29.20;;;;;;;10.60;75.82;99899.83;106026;1274;138969;-75
2022/10/01 01:22:34;;;;;;;38.70;30.40;;;;;;;10.60;75.88;99902.27;106240;1272;108922;-76
2022/10/01 01:25:16;;;;;;;44.20;31.60;;;;;;;10.59;75.83;99902.98;105979;1272;138737;-75
2022/10/01 01:27:58;;;;;;;42.60;31.40;;;;;;;10.60;75.85;99905.74;106183;1272;97828;-74
2022/10/01 01:30:33;;;;;;;46.30;35.00;;;;;;;10.63;76.06;99906.69;106074;1274;139522;-75
2022/10/01 01:33:10;;;;;;;47.20;34.50;;;;;;;10.63;75.88;99911.02;106230;1271;112507;-76
2022/10/01 01:35:51;;;;;;;50.30;37.50;;;;;;;10.62;75.77;99914.54;106116;1273;108812;-76
2022/10/01 01:38:28;;;;;;;45.60;35.00;;;;;;;10.60;75.75;99914.24;106030;1272;138864;-77
2022/10/01 01:41:03;;;;;;;46.60;35.50;;;;;;;10.59;75.77;99911.85;106119;1274;97838;-76
2022/10/01 01:43:39;;;;;;;48.70;36.60;;;;;;;10.58;75.87;99910.81;106057;1272;140283;-76
2022/10/01 01:46:16;;;;;;;50.40;37.30;;;;;;;10.59;75.97;99910.11;106164;1272;111417;-76
2022/10/01 01:48:52;;;;;;;51.10;37.00;;;;;;;10.57;75.95;99920.08;106013;1273;138907;-76
2022/10/01 01:51:31;;;;;;;47.40;36.80;;;;;;;10.56;76.02;99927.43;106134;1273;106742;-76
2022/10/01 01:54:04;;;;;;;48.40;35.80;;;;;;;10.54;76.06;99921.39;106028;1271;138944;-76
2022/10/01 01:56:37;;;;;;;46.60;36.10;;;;;;;10.54;76.16;99918.63;106121;1272;97836;-75
2022/10/01 01:59:09;;;;;;;47.60;37.20;;;;;;;10.54;76.26;99920.57;106086;1272;112305;-75
2022/10/01 02:01:43;;;;;;;53.50;36.80;;;;;;;10.52;76.31;99922.34;106048;1271;138727;-75
2022/10/01 02:04:20;;;;;;;47.10;35.80;;;;;;;10.52;76.28;99918.19;106106;1272;107749;-75
2022/10/01 02:07:14;;;;;;;46.00;35.50;;;;;;;10.51;76.37;99922.08;105972;1272;139090;-75
2022/10/01 02:09:58;;;;;;;49.60;36.90;;;;;;;10.48;76.39;99933.47;106204;1272;97887;-75
2022/10/01 02:12:44;;;;;;;47.10;36.40;;;;;;;10.45;76.57;99934.45;106039;1272;139203;-76
2022/10/01 02:15:26;;;;;;;45.70;35.80;;;;;;;10.44;76.79;99934.00;106178;1272;108659;-76
2022/10/01 02:18:10;;;;;;;47.20;36.40;;;;;;;10.41;76.92;99939.98;106241;1271;110473;-76
2022/10/01 02:20:49;;;;;;;45.40;35.60;;;;;;;10.38;76.93;99938.52;106213;1272;98632;-76
2022/10/01 02:23:29;;;;;;;47.00;34.90;;;;;;;10.36;77.23;99940.15;106255;1271;98285;-76
2022/10/01 02:26:07;;;;;;;47.70;36.30;;;;;;;10.35;77.33;99943.86;106014;1272;140196;-76
2022/10/01 02:28:41;;;;;;;48.90;35.80;;;;;;;10.35;77.44;99943.87;106241;1272;108798;-76
2022/10/01 02:31:15;;;;;;;44.20;35.30;;;;;;;10.34;77.72;99940.08;106097;1272;138870;-75
2022/10/01 02:33:49;;;;;;;44.60;34.10;;;;;;;10.34;77.69;99936.42;106164;1272;97950;-75
2022/10/01 02:36:24;;;;;;;45.70;33.80;;;;;;;10.35;77.71;99925.98;106116;1272;138697;-75
2022/10/01 02:38:59;;;;;;;42.10;32.60;;;;;;;10.34;77.71;99922.87;106243;1271;112481;-75
2022/10/01 02:41:35;;;;;;;44.60;34.10;;;;;;;10.33;77.66;99920.64;106722;1271;108038;-76
2022/10/01 02:44:12;;;;;;;48.70;33.90;;;;;;;10.32;77.71;99915.10;106422;1271;138589;-76
2022/10/01 02:46:45;;;;;;;;;;;;;;;10.31;77.74;99905.59;106186;1272;97890;-76
2022/10/01 02:49:18;;;;;;;42.50;32.50;;;;;;;10.28;77.88;99897.20;106060;1271;124765;-75
2022/10/01 02:51:56;;;;;;;45.30;34.40;;;;;;;10.26;77.96;99900.21;105988;1272;193966;-75
2022/10/01 02:54:32;;;;;;;43.80;35.70;;;;;;;10.24;78.00;99896.11;107654;1271;139083;-75
2022/10/01 02:57:23;;;;;;;44.00;33.80;;;;;;;10.23;78.19;99891.11;106545;1271;107767;-73
2022/10/01 02:59:58;;;;;;;48.20;34.70;;;;;;;10.23;78.30;99888.15;106145;1272;97816;-75
2022/10/01 03:02:32;;;;;;;46.40;34.20;;;;;;;10.24;78.53;99886.56;106208;1272;98234;-75
2022/10/01 03:05:06;;;;;;;48.30;34.40;;;;;;;10.23;78.48;99884.85;106084;1272;112503;-75
2022/10/01 03:07:39;;;;;;;46.30;33.20;;;;;;;10.24;78.54;99878.39;106084;1272;139167;-74
2022/10/01 03:10:14;;;;;;;42.60;33.50;;;;;;;10.26;78.60;99879.70;106194;1271;108921;-74
2022/10/01 03:12:47;;;;;;;44.00;33.40;;;;;;;10.29;78.57;99876.99;106057;1271;138997;-75
2022/10/01 03:15:21;;;;;;;46.90;33.50;;;;;;;10.29;78.59;99874.02;106180;1272;97894;-75
2022/10/01 03:17:55;;;;;;;46.30;35.10;;;;;;;10.31;78.72;99875.20;106204;1271;112463;-74
2022/10/01 03:20:27;;;;;;;46.90;33.70;;;;;;;10.30;78.73;99866.36;106092;1271;138579;-74
2022/10/01 03:22:59;;;;;;;43.30;32.30;;;;;;;10.31;78.74;99863.55;106113;1272;108926;-76
2022/10/01 03:25:31;;;;;;;43.40;32.90;;;;;;;10.30;78.51;99860.10;105974;1272;138849;-76
2022/10/01 03:28:04;;;;;;;44.10;33.00;;;;;;;10.29;78.37;99863.44;106186;1271;97804;-76
2022/10/01 03:30:36;;;;;;;43.20;32.60;;;;;;;10.27;78.27;99857.42;106042;1271;138724;-76
2022/10/01 03:33:08;;;;;;;42.20;32.00;;;;;;;10.26;78.25;99857.48;106242;1271;108869;-75
2022/10/01 03:35:40;;;;;;;43.60;32.50;;;;;;;10.23;78.09;99865.04;106197;1271;107773;-75
2022/10/01 03:38:12;;;;;;;43.10;33.40;;;;;;;10.19;78.08;99863.94;106097;1271;138847;-74
2022/10/01 03:40:45;;;;;;;46.70;33.80;;;;;;;10.16;78.16;99868.91;106191;1271;97899;-74
2022/10/01 03:43:17;;;;;;;43.80;33.40;;;;;;;10.14;78.19;99872.46;106124;1271;138553;-75
2022/10/01 03:45:49;;;;;;;46.10;33.60;;;;;;;10.12;78.17;99879.34;106238;1271;108750;-75
2022/10/01 03:48:22;;;;;;;43.90;33.40;;;;;;;10.10;78.40;99887.23;106090;1271;138957;-75
2022/10/01 03:50:58;;;;;;;44.00;34.00;;;;;;;10.09;78.49;99888.83;106174;1271;98048;-75
2022/10/01 03:53:30;;;;;;;49.40;35.00;;;;;;;10.07;78.66;99890.63;106150;1273;97936;-75
2022/10/01 03:56:03;;;;;;;43.00;34.30;;;;;;;10.04;78.68;99888.80;106110;1271;138660;-75
2022/10/01 03:58:35;;;;;;;44.70;34.20;;;;;;;10.01;78.68;99889.77;106195;1271;107827;-75
2022/10/01 04:01:08;;;;;;;45.20;34.40;;;;;;;9.97;78.57;99889.75;106085;1271;140700;-75
2022/10/01 04:03:40;;;;;;;46.10;34.00;;;;;;;9.94;78.65;99890.73;106213;1271;97874;-75
2022/10/01 04:06:13;;;;;;;45.80;34.60;;;;;;;9.92;78.64;99893.24;106101;1271;138467;-76
2022/10/01 04:08:46;;;;;;;50.70;35.90;;;;;;;9.89;78.74;99895.60;106175;1271;112499;-75
2022/10/01 04:11:18;;;;;;;47.10;35.00;;;;;;;9.86;78.63;99888.39;106213;1271;108925;-76
2022/10/01 04:13:50;;;;;;;50.10;35.30;;;;;;;9.83;78.66;99888.35;106109;1271;139592;-75
2022/10/01 04:16:23;;;;;;;45.50;33.20;;;;;;;9.79;78.67;99885.36;106093;1273;97947;-75
2022/10/01 04:18:56;;;;;;;46.30;35.10;;;;;;;9.75;78.78;99883.93;106075;1271;138391;-75
2022/10/01 04:21:28;;;;;;;47.70;35.00;;;;;;;9.72;78.75;99883.88;106194;1271;111306;-75
2022/10/01 04:24:01;;;;;;;45.00;35.10;;;;;;;9.71;79.08;99887.23;106082;1273;108892;-75
2022/10/01 04:26:34;;;;;;;49.80;36.30;;;;;;;9.69;79.04;99886.58;106246;1271;107677;-74
2022/10/01 04:29:06;;;;;;;49.50;35.80;;;;;;;9.64;78.93;99882.20;106169;1271;97932;-76
2022/10/01 04:31:39;;;;;;;47.30;34.90;;;;;;;9.60;78.90;99878.02;106151;1271;138614;-75
2022/10/01 04:34:11;;;;;;;51.20;36.20;;;;;;;9.56;78.97;99878.48;106201;1271;111376;-75
2022/10/01 04:36:43;;;;;;;54.30;36.90;;;;;;;9.53;78.91;99882.79;106108;1271;138975;-76
2022/10/01 04:39:15;;;;;;;46.80;34.80;;;;;;;9.50;79.16;99882.36;106226;1271;108816;-76
2022/10/01 04:41:48;;;;;;;47.00;35.50;;;;;;;9.50;79.42;99879.22;106182;1271;97849;-75
2022/10/01 04:44:20;;;;;;;51.60;37.50;;;;;;;9.50;79.48;99877.65;106034;1273;138809;-75
2022/10/01 04:46:52;;;;;;;48.70;36.50;;;;;;;9.50;79.50;99875.39;106284;1271;112372;-75
2022/10/01 04:49:25;;;;;;;51.40;36.70;;;;;;;9.51;79.53;99876.24;106197;1271;138569;-75
2022/10/01 04:51:57;;;;;;;48.90;36.70;;;;;;;9.52;79.60;99874.66;106111;1273;108944;-74
2022/10/01 04:54:29;;;;;;;48.40;36.30;;;;;;;9.51;79.49;99876.58;106086;1271;138893;-74
2022/10/01 04:57:02;;;;;;;50.30;36.80;;;;;;;9.50;79.56;99879.05;106249;1271;97840;-74
2022/10/01 04:59:34;;;;;;;51.50;36.40;;;;;;;9.48;79.48;99880.33;106234;1271;112613;-76
2022/10/01 05:02:06;;;;;;;50.50;37.30;;;;;;;9.45;79.50;99880.77;106002;1273;138541;-75
2022/10/01 05:04:39;;;;;;;52.70;37.80;;;;;;;9.43;79.47;99881.89;106214;1271;109016;-74
2022/10/01 05:07:11;;;;;;;46.90;35.70;;;;;;;9.41;79.53;99877.63;106102;1271;140669;-76
2022/10/01 05:09:43;;;;;;;48.90;36.20;;;;;;;9.40;79.63;99876.98;106193;1273;98253;-75
2022/10/01 05:12:15;;;;;;;54.00;38.10;;;;;;;9.41;79.80;99880.77;106172;1271;139336;-75
2022/10/01 05:14:53;;;;;;;50.40;37.70;;;;;;;9.40;79.75;99884.07;106317;1271;107831;-76
2022/10/01 05:17:26;;;;;;;48.50;37.50;;;;;;;9.38;79.78;99882.41;106190;1271;107728;-76
2022/10/01 05:19:58;;;;;;;48.10;36.50;;;;;;;9.37;79.85;99882.27;106162;1271;138490;-76
2022/10/01 05:22:31;;;;;;;49.40;37.00;;;;;;;9.41;80.00;99885.09;106227;1271;97922;-75
2022/10/01 05:25:03;;;;;;;54.00;38.10;;;;;;;9.47;80.13;99886.27;106109;1271;138516;-75
2022/10/01 05:27:36;;;;;;;50.70;37.20;;;;;;;9.63;80.27;99883.63;106258;1271;109189;-76
2022/10/01 05:30:12;;;;;;;51.00;38.00;;;;;;;9.88;80.15;99885.05;107141;1271;138833;-76
2022/10/01 05:32:53;;;;;;;48.90;36.80;;;;;;;10.13;79.78;99884.48;106362;1271;98613;-76
2022/10/01 05:35:26;;;;;;;47.30;35.60;;;;;;;10.42;79.43;99885.03;106239;1271;98299;-76
2022/10/01 05:38:01;;;;;;;50.70;35.60;;;;;;;10.74;79.22;99883.30;106120;1271;139200;-75
2022/10/01 05:40:34;;;;;;;44.80;34.20;;;;;;;11.07;78.52;99883.40;106159;1273;109003;-76
2022/10/01 05:43:06;;;;;;;43.30;32.30;;;;;;;11.34;77.87;99882.11;106093;1271;140031;-75
2022/10/01 05:45:38;;;;;;;42.10;33.30;;;;;;;11.64;77.74;99882.23;106251;1270;97882;-75
2022/10/01 05:48:11;;;;;;;37.40;30.80;;;;;;;11.97;77.07;99877.02;106062;1271;139599;-76
2022/10/01 05:50:43;;;;;;;37.80;30.80;;;;;;;12.30;76.63;99876.27;106249;1271;112462;-75
2022/10/01 05:53:15;;;;;;;38.90;30.80;;;;;;;12.67;75.91;99875.27;106153;1271;108897;-76
2022/10/01 05:55:48;;;;;;;36.50;29.40;;;;;;;12.98;74.66;99876.23;106003;1271;138746;-76
2022/10/01 05:58:20;;;;;;;38.80;30.10;;;;;;;13.29;74.04;99880.66;106158;1271;97843;-76
2022/10/01 06:00:54;;;;;;;35.40;30.00;;;;;;;13.60;73.09;99879.15;106112;1271;138598;-76
2022/10/01 06:03:28;;;;;;;35.70;29.40;;;;;;;13.78;72.85;99878.38;106118;1273;113016;-77
2022/10/01 06:06:00;;;;;;;37.80;29.50;;;;;;;13.85;71.83;99886.58;106121;1273;109032;-75
2022/10/01 06:08:33;;;;;;;35.40;29.30;;;;;;;13.93;71.47;99879.73;106226;1273;108957;-75
2022/10/01 06:11:06;;;;;;;33.60;28.50;;;;;;;14.10;71.50;99871.67;106155;1271;97982;-74
2022/10/01 06:13:39;;;;;;;37.10;29.20;;;;;;;14.40;71.14;99870.61;106067;1273;138655;-75
2022/10/01 06:16:11;;;;;;;34.90;29.30;;;;;;;14.61;70.04;99871.61;106250;1271;112529;-76
2022/10/01 06:18:44;;;;;;;40.80;29.30;;;;;;;14.74;70.09;99873.48;106123;1271;139364;-76
2022/10/01 06:21:16;;;;;;;34.80;28.00;;;;;;;15.03;69.93;99871.13;106237;1271;109380;-76
2022/10/01 06:23:49;;;;;;;37.20;28.30;;;;;;;15.36;69.66;99864.36;106097;1273;97890;-76
2022/10/01 06:26:21;;;;;;;32.20;28.70;;;;;;;15.63;69.03;99863.13;106137;1271;140196;-76
2022/10/01 06:28:54;;;;;;;34.20;29.60;;;;;;;15.80;68.28;99857.43;106234;1271;109864;-76
2022/10/01 06:31:26;;;;;;;37.00;29.90;;;;;;;15.92;67.71;99859.65;106030;1273;139059;-76
2022/10/01 06:33:59;;;;;;;35.10;28.80;;;;;;;16.10;67.51;99860.17;106216;1271;108626;-76
2022/10/01 06:36:31;;;;;;;34.40;28.40;;;;;;;16.71;67.14;99856.36;106112;1271;139212;-77
2022/10/01 06:39:07;;;;;;;32.90;28.40;;;;;;;17.32;66.03;99851.34;106209;1271;97824;-76
2022/10/01 06:41:39;;;;;;;30.70;26.70;;;;;;;17.93;65.02;99852.63;106185;1273;111315;-76
2022/10/01 06:44:15;;;;;;;30.60;25.30;;;;;;;18.47;63.47;99848.73;106018;1273;138974;-76
2022/10/01 06:46:47;;;;;;;33.40;26.30;;;;;;;19.11;62.69;99848.86;106189;1271;108790;-76
2022/10/01 06:49:21;;;;;;;28.90;25.50;;;;;;;19.46;60.90;99849.91;106141;1271;138630;-74
2022/10/01 06:54:43;;;;;;;28.90;23.90;;;;;;;19.55;59.78;99844.15;106140;1271;138145;-77
2022/10/01 06:57:15;;;;;;;32.60;25.60;;;;;;;20.02;59.45;99841.08;106193;1273;109189;-76
2022/10/01 06:59:48;;;;;;;31.80;25.10;;;;;;;20.62;58.84;99834.05;106221;1271;107439;-77
2022/10/01 07:02:26;;;;;;;29.10;25.70;;;;;;;21.22;57.42;99837.07;106680;1273;137862;-77
2022/10/01 07:05:00;;;;;;;27.40;24.50;;;;;;;21.60;55.72;99840.67;106277;1271;97824;-76
2022/10/01 07:07:34;;;;;;;27.20;24.30;;;;;;;21.64;54.78;99835.86;106121;1271;138020;-76
2022/10/01 07:10:09;;;;;;;27.80;24.40;;;;;;;21.60;54.07;99838.52;106131;1273;107776;-77
2022/10/01 07:12:41;;;;;;;28.90;25.40;;;;;;;21.49;53.50;99838.41;106359;1271;138339;-76
2022/10/01 07:15:14;;;;;;;29.20;26.10;;;;;;;21.43;53.02;99839.44;106137;1273;97865;-77
2022/10/01 07:17:48;;;;;;;28.30;25.40;;;;;;;21.11;52.72;99838.52;106195;1273;97834;-76
2022/10/01 07:20:22;;;;;;;30.60;26.80;;;;;;;21.05;52.75;99831.22;106970;1271;137714;-76
2022/10/01 07:22:59;;;;;;;27.10;24.20;;;;;;;21.14;52.57;99829.45;106203;1273;109195;-76
2022/10/01 07:25:31;;;;;;;25.70;22.90;;;;;;;21.32;52.48;99830.27;106090;1271;138718;-77
2022/10/01 07:28:06;;;;;;;27.30;23.70;;;;;;;21.78;51.99;99830.98;106133;1273;97795;-76
2022/10/01 07:30:39;;;;;;;25.10;21.00;;;;;;;22.58;51.48;99830.08;106120;1271;138897;-76
2022/10/01 07:33:12;;;;;;;28.00;23.20;;;;;;;23.69;50.15;99828.63;106697;1271;112443;-77
2022/10/01 07:35:46;;;;;;;23.20;19.70;;;;;;;24.52;48.91;99820.69;106247;1271;109032;-76
2022/10/01 07:38:19;;;;;;;21.70;19.00;;;;;;;25.23;47.82;99820.65;106089;1271;138061;-76
2022/10/01 07:40:54;;;;;;;21.20;19.10;;;;;;;25.81;46.42;99818.88;106134;1273;97827;-76
2022/10/01 07:43:27;;;;;;;21.30;18.70;;;;;;;26.24;45.37;99821.16;106072;1273;139110;-75
2022/10/01 07:46:01;;;;;;;21.50;19.30;;;;;;;26.50;44.58;99819.53;106244;1271;112549;-76
2022/10/01 07:48:34;;;;;;;22.10;19.90;;;;;;;26.71;43.98;99825.72;106142;1271;138304;-76
2022/10/01 07:51:06;;;;;;;23.50;20.90;;;;;;;26.72;43.08;99826.20;106194;1273;108747;-77
2022/10/01 07:53:38;;;;;;;23.80;19.80;;;;;;;26.39;42.37;99827.16;106257;1271;97856;-76
2022/10/01 07:56:11;;;;;;;24.60;21.40;;;;;;;25.73;42.76;99830.20;106173;1271;138156;-76
2022/10/01 07:58:43;;;;;;;22.90;20.60;;;;;;;25.46;42.86;99834.59;106234;1271;112498;-75
2022/10/01 08:01:16;;;;;;;23.00;20.60;;;;;;;25.16;42.93;99835.73;106072;1273;138139;-75
2022/10/01 08:03:51;;;;;;;19.30;17.40;;;;;;;24.64;42.68;99837.52;106193;1271;108477;-76
2022/10/01 08:06:24;;;;;;;20.20;18.10;;;;;;;23.85;42.26;99845.26;106113;1271;138172;-76
2022/10/01 08:08:57;;;;;;;20.10;18.10;;;;;;;23.16;42.89;99844.02;106275;1271;97858;-76
2022/10/01 08:11:30;;;;;;;22.80;17.80;;;;;;;22.83;43.44;99842.01;106229;1271;112451;-75
2022/10/01 08:14:03;;;;;;;18.70;16.70;;;;;;;23.08;44.12;99840.63;106112;1271;138152;-75
2022/10/01 08:16:38;;;;;;;19.70;16.60;;;;;;;23.64;44.02;99835.30;106160;1273;108477;-76
2022/10/01 08:19:11;;;;;;;19.80;17.50;;;;;;;24.01;43.37;99829.52;106140;1271;139353;-76
2022/10/01 08:21:44;;;;;;;18.00;16.10;;;;;;;24.35;43.30;99819.91;106254;1269;97825;-75
2022/10/01 08:24:16;;;;;;;18.60;16.70;;;;;;;24.70;42.92;99818.80;106138;1271;138383;-74
2022/10/01 08:26:54;;;;;;;20.40;18.30;;;;;;;24.83;42.53;99815.80;106278;1271;109536;-75
2022/10/01 08:29:27;;;;;;;19.90;17.40;;;;;;;24.73;42.23;99814.06;106420;1271;108871;-76
2022/10/01 08:31:59;;;;;;;21.60;19.40;;;;;;;24.68;42.35;99816.17;106057;1271;138267;-75
2022/10/01 08:34:33;;;;;;;23.20;19.30;;;;;;;24.45;41.99;99814.17;106256;1271;97970;-75
2022/10/01 08:37:05;;;;;;;22.90;19.50;;;;;;;24.29;42.27;99809.61;106061;1273;137931;-74
2022/10/01 08:39:38;;;;;;;22.70;20.30;;;;;;;23.77;42.45;99806.91;106156;1273;109198;-74
2022/10/01 08:42:21;;;;;;;20.80;18.60;;;;;;;22.93;42.56;99808.33;106060;1273;138182;-74
2022/10/01 08:44:54;;;;;;;21.20;18.80;;;;;;;21.95;43.30;99801.70;106590;1271;97821;-75
2022/10/01 08:47:33;;;;;;;20.90;18.70;;;;;;;21.11;44.08;99800.33;106233;1271;97854;-75
2022/10/01 08:50:14;;;;;;;20.50;18.20;;;;;;;20.29;44.75;99800.52;106068;1273;137966;-75
2022/10/01 08:52:54;;;;;;;21.10;18.90;;;;;;;19.57;45.94;99805.73;106390;1273;108848;-75
2022/10/01 08:55:34;;;;;;;23.10;19.60;;;;;;;18.98;46.97;99805.91;106079;1272;139002;-74
2022/10/01 08:58:11;;;;;;;23.30;19.50;;;;;;;18.36;47.65;99808.30;106210;1272;97842;-74
2022/10/01 09:00:47;;;;;;;21.60;18.80;;;;;;;17.70;48.57;99804.48;106045;1272;138532;-76
2022/10/01 09:03:20;;;;;;;24.70;19.80;;;;;;;17.08;49.66;99799.88;106116;1271;112490;-76
2022/10/01 09:06:03;;;;;;;23.20;18.40;;;;;;;16.56;50.70;99800.45;106181;1272;109032;-76
2022/10/01 09:08:46;;;;;;;21.50;18.90;;;;;;;16.09;51.82;99797.09;106198;1272;107908;-75
2022/10/01 09:11:33;;;;;;;19.80;16.20;;;;;;;15.65;52.72;99799.06;106214;1272;97831;-77
2022/10/01 09:14:17;;;;;;;21.50;17.70;;;;;;;15.21;53.59;99808.85;106104;1271;139367;-77
2022/10/01 09:17:04;;;;;;;17.10;11.60;;;;;;;14.88;54.56;99806.33;106201;1273;112650;-76
2022/10/01 09:19:58;;;;;;;16.50;12.30;;;;;;;14.54;55.15;99797.92;106149;1271;138079;-77
2022/10/01 09:22:39;;;;;;;19.70;13.70;;;;;;;14.19;56.03;99795.15;106184;1270;108938;-76
2022/10/01 09:25:21;;;;;;;15.50;11.60;;;;;;;13.94;56.82;99794.69;106092;1272;137965;-76
2022/10/01 09:28:00;;;;;;;16.70;13.70;;;;;;;13.74;57.61;99796.15;106286;1271;97938;-76
2022/10/01 09:30:35;;;;;;;20.50;14.70;;;;;;;13.54;58.51;99795.25;106099;1271;139488;-74
2022/10/01 09:33:16;;;;;;;18.20;14.50;;;;;;;13.34;59.16;99796.45;106237;1270;107789;-75
2022/10/01 09:35:55;;;;;;;16.60;14.40;;;;;;;13.19;59.68;99794.58;106210;1271;108912;-75
2022/10/01 09:38:35;;;;;;;18.00;13.80;;;;;;;13.09;60.31;99794.01;106069;1272;138707;-74
2022/10/01 09:41:09;;;;;;;23.10;16.10;;;;;;;12.99;60.85;99791.56;106233;1270;97849;-76
2022/10/01 09:43:43;;;;;;;19.30;16.70;;;;;;;12.87;61.37;99796.14;106153;1270;138637;-76
2022/10/01 09:46:19;;;;;;;22.70;16.60;;;;;;;12.76;61.67;99801.92;106276;1272;107869;-76
2022/10/01 09:48:59;;;;;;;19.60;16.10;;;;;;;12.64;62.15;99797.22;106166;1270;138786;-75
2022/10/01 09:51:36;;;;;;;20.40;15.50;;;;;;;12.57;62.67;99800.02;106265;1270;97635;-75
2022/10/01 09:54:17;;;;;;;20.10;16.30;;;;;;;12.46;62.86;99796.17;106062;1272;138683;-75
2022/10/01 09:56:55;;;;;;;24.30;17.40;;;;;;;12.39;63.36;99796.15;106220;1272;111390;-76
2022/10/01 09:59:34;;;;;;;21.40;16.90;;;;;;;12.36;63.73;99793.88;106159;1272;109071;-75
2022/10/01 10:02:15;;;;;;;21.50;17.10;;;;;;;12.32;64.13;99793.70;106070;1270;139106;-76
2022/10/01 10:04:58;;;;;;;20.50;16.20;;;;;;;12.36;64.33;99789.15;106293;1270;97825;-75
2022/10/01 10:07:33;;;;;;;23.90;16.70;;;;;;;12.58;64.54;99788.63;106114;1271;140767;-76
2022/10/01 10:10:19;;;;;;;20.00;15.50;;;;;;;12.97;64.57;99779.24;106272;1270;113059;-75
2022/10/01 10:13:05;;;;;;;19.90;15.10;;;;;;;13.22;64.17;99769.82;106156;1271;139010;-76
2022/10/01 10:15:41;;;;;;;20.90;15.70;;;;;;;13.22;63.94;99774.86;106169;1272;107651;-76
2022/10/01 10:18:16;;;;;;;19.50;13.20;;;;;;;13.12;63.70;99780.94;106150;1270;141527;-75
2022/10/01 10:20:56;;;;;;;16.20;13.60;;;;;;;12.97;63.77;99776.95;106983;1272;97852;-76
2022/10/01 10:23:30;;;;;;;16.70;13.40;;;;;;;12.85;63.94;99771.64;106252;1270;112945;-74
2022/10/01 10:26:04;;;;;;;16.90;13.00;;;;;;;12.75;64.17;99771.09;106089;1271;138696;-77
2022/10/01 10:28:44;;;;;;;17.30;13.50;;;;;;;12.65;64.46;99768.41;106199;1272;108844;-75
2022/10/01 10:31:19;;;;;;;18.40;14.90;;;;;;;12.54;64.82;99758.83;106057;1272;140549;-75
2022/10/01 10:33:56;;;;;;;20.10;16.00;;;;;;;12.47;65.09;99749.23;106231;1272;96305;-76
2022/10/01 10:36:32;;;;;;;24.30;17.70;;;;;;;12.40;65.36;99739.11;106066;1272;139060;-77
2022/10/01 10:39:13;;;;;;;19.80;15.80;;;;;;;12.36;65.81;99738.38;106248;1270;107810;-77
2022/10/01 10:41:50;;;;;;;20.60;15.80;;;;;;;12.29;65.77;99737.54;106205;1272;108938;-77
2022/10/01 10:44:26;;;;;;;21.70;17.10;;;;;;;12.21;66.14;99730.77;106572;1272;140588;-75
2022/10/01 10:47:04;;;;;;;22.30;17.80;;;;;;;12.14;66.65;99734.41;106183;1271;98470;-78
2022/10/01 10:49:43;;;;;;;22.30;17.90;;;;;;;12.07;66.83;99723.92;107182;1270;138579;-79
2022/10/01 10:52:28;;;;;;;21.30;16.10;;;;;;;12.05;67.02;99722.80;106772;1271;108926;-76
2022/10/01 10:55:18;;;;;;;22.60;17.90;;;;;;;12.03;67.27;99719.23;106075;1272;140525;-76
2022/10/01 10:57:51;;;;;;;23.30;18.70;;;;;;;11.99;67.64;99717.14;106173;1271;97834;-76
2022/10/01 11:00:28;;;;;;;21.00;15.80;;;;;;;11.94;67.90;99718.42;106075;1272;138905;-75
2022/10/01 11:03:03;;;;;;;23.10;16.30;;;;;;;11.91;67.91;99708.31;106212;1272;111588;-75
2022/10/01 11:05:43;;;;;;;20.00;14.90;;;;;;;11.90;68.02;99705.40;106206;1272;107183;-77
2022/10/01 11:08:22;;;;;;;19.30;14.60;;;;;;;11.90;67.81;99703.65;107347;1272;138840;-76
2022/10/01 11:11:06;;;;;;;17.20;14.20;;;;;;;11.92;68.00;99697.46;106243;1270;97848;-76
2022/10/01 11:13:57;;;;;;;18.20;14.70;;;;;;;11.97;68.14;99690.95;106094;1272;139670;-75
2022/10/01 11:16:51;;;;;;;16.60;12.60;;;;;;;12.03;68.00;99689.43;106142;1271;112582;-76
2022/10/01 11:19:38;;;;;;;16.30;13.50;;;;;;;12.11;68.04;99681.23;106029;1272;138744;-75
2022/10/01 11:22:27;;;;;;;16.90;13.90;;;;;;;12.22;68.04;99677.91;106213;1270;108866;-76
2022/10/01 11:25:14;;;;;;;17.40;13.30;;;;;;;12.33;68.17;99673.16;106025;1272;139166;-76
2022/10/01 11:27:48;;;;;;;;;;;;;;;12.41;68.02;99672.81;106230;1271;97853;-78
2022/10/01 11:30:24;;;;;;;15.10;12.80;;;;;;;12.49;67.94;99667.52;106080;1272;126164;-77
2022/10/01 11:33:10;;;;;;;18.30;13.90;;;;;;;12.61;68.05;99656.99;106123;1272;108900;-78
2022/10/01 11:35:58;;;;;;;19.20;15.60;;;;;;;12.79;68.03;99652.58;106194;1272;106490;-78
2022/10/01 11:38:57;;;;;;;17.30;14.60;;;;;;;13.06;67.76;99642.15;106217;1270;97827;-78
2022/10/01 11:41:39;;;;;;;17.90;15.30;;;;;;;13.23;67.21;99626.06;106170;1272;97827;-76
2022/10/01 11:44:20;;;;;;;17.40;14.60;;;;;;;13.37;67.11;99626.39;106039;1271;138997;-76
2022/10/01 11:47:00;;;;;;;18.70;15.20;;;;;;;13.50;66.49;99616.42;106091;1272;108913;-76